sensor_id;sensor_type;location;lat;lon;timestamp;pressure;altitude;pressure_sealevel;temperature;humidity
10718;BME280;13513;42.700;23.124;2024-02-21T00:01:25;150277.25;;;5.37;100.00
10718;BME280;13513;42.700;23.124;2024-02-21T00:03:52;150305.59;;;5.48;100.00
10718;BME280;13513;42.700;23.124;2024-02-21T00:06:20;150321.03;;;5.54;100.00
10718;BME280;13513;42.700;23.124;2024-02-21T00:08:47;150308.16;;;5.49;100.00
10718;BME280;13513;42.700;23.124;2024-02-21T00:11:14;150313.28;;;5.51;100.00
10718;BME280;13513;42.700;23.124;2024-02-21T00:13:43;150318.47;;;5.53;100.00
10718;BME280;13513;42.700;23.124;2024-02-21T00:16:10;150323.59;;;5.55;100.00
10718;BME280;13513;42.700;23.124;2024-02-21T00:18:38;150349.38;;;5.65;100.00
10718;BME280;13513;42.700;23.124;2024-02-21T00:21:05;150355.81;;;5.67;100.00
10718;BME280;13513;42.700;23.124;2024-02-21T00:23:33;150321.03;;;5.54;100.00
10718;BME280;13513;42.700;23.124;2024-02-21T00:26:00;150345.52;;;5.63;100.00
10718;BME280;13513;42.700;23.124;2024-02-21T00:28:27;150350.69;;;5.65;100.00
10718;BME280;13513;42.700;23.124;2024-02-21T00:30:55;150339.08;;;5.61;100.00
10718;BME280;13513;42.700;23.124;2024-02-21T00:33:22;150351.94;;;5.66;100.00
10718;BME280;13513;42.700;23.124;2024-02-21T00:35:50;150332.64;;;5.58;100.00
10718;BME280;13513;42.700;23.124;2024-02-21T00:38:17;150332.64;;;5.58;100.00
10718;BME280;13513;42.700;23.124;2024-02-21T00:40:45;150312.03;;;5.50;100.00
10718;BME280;13513;42.700;23.124;2024-02-21T00:43:12;150270.83;;;5.34;100.00
10718;BME280;13513;42.700;23.124;2024-02-21T00:45:40;150266.95;;;5.33;100.00
10718;BME280;13513;42.700;23.124;2024-02-21T00:48:08;150261.78;;;5.31;100.00
10718;BME280;13513;42.700;23.124;2024-02-21T00:50:35;150277.25;;;5.37;100.00
10718;BME280;13513;42.700;23.124;2024-02-21T00:53:04;150288.81;;;5.41;100.00
10718;BME280;13513;42.700;23.124;2024-02-21T00:55:31;150291.42;;;5.42;100.00
10718;BME280;13513;42.700;23.124;2024-02-21T00:57:59;150274.64;;;5.36;100.00
10718;BME280;13513;42.700;23.124;2024-02-21T01:00:26;150293.98;;;5.43;100.00
10718;BME280;13513;42.700;23.124;2024-02-21T01:02:54;150317.16;;;5.52;100.00
10718;BME280;13513;42.700;23.124;2024-02-21T01:05:21;150335.20;;;5.59;100.00
10718;BME280;13513;42.700;23.124;2024-02-21T01:07:49;150350.69;;;5.65;100.00
10718;BME280;13513;42.700;23.124;2024-02-21T01:10:16;150355.81;;;5.67;100.00
10718;BME280;13513;42.700;23.124;2024-02-21T01:12:44;150324.91;;;5.55;100.00
10718;BME280;13513;42.700;23.124;2024-02-21T01:15:11;150326.22;;;5.56;100.00
10718;BME280;13513;42.700;23.124;2024-02-21T01:17:39;150301.73;;;5.46;100.00
10718;BME280;13513;42.700;23.124;2024-02-21T01:20:08;150290.12;;;5.42;100.00
10718;BME280;13513;42.700;23.124;2024-02-21T01:22:36;150275.95;;;5.36;100.00
10718;BME280;13513;42.700;23.124;2024-02-21T01:25:04;150270.83;;;5.34;100.00
10718;BME280;13513;42.700;23.124;2024-02-21T01:27:32;150263.08;;;5.31;100.00
10718;BME280;13513;42.700;23.124;2024-02-21T01:29:59;150273.39;;;5.35;100.00
10718;BME280;13513;42.700;23.124;2024-02-21T01:32:26;150293.98;;;5.43;100.00
10718;BME280;13513;42.700;23.124;2024-02-21T01:34:54;150285.00;;;5.40;100.00
10718;BME280;13513;42.700;23.124;2024-02-21T01:37:21;150273.39;;;5.35;100.00
10718;BME280;13513;42.700;23.124;2024-02-21T01:39:49;150265.64;;;5.32;100.00
10718;BME280;13513;42.700;23.124;2024-02-21T01:42:17;150264.34;;;5.32;100.00
10718;BME280;13513;42.700;23.124;2024-02-21T01:44:44;150259.22;;;5.30;100.00
10718;BME280;13513;42.700;23.124;2024-02-21T01:47:12;150238.61;;;5.22;100.00
10718;BME280;13513;42.700;23.124;2024-02-21T01:49:41;150224.44;;;5.16;100.00
10718;BME280;13513;42.700;23.124;2024-02-21T01:52:10;150187.09;;;5.02;100.00
10718;BME280;13513;42.700;23.124;2024-02-21T01:54:38;150154.91;;;4.89;100.00
10718;BME280;13513;42.700;23.124;2024-02-21T01:57:05;150135.56;;;4.82;100.00
10718;BME280;13513;42.700;23.124;2024-02-21T01:59:33;150125.27;;;4.78;100.00
10718;BME280;13513;42.700;23.124;2024-02-21T02:02:02;150139.44;;;4.83;100.00
10718;BME280;13513;42.700;23.124;2024-02-21T02:04:30;150138.17;;;4.83;100.00
10718;BME280;13513;42.700;23.124;2024-02-21T02:06:59;150125.27;;;4.78;100.00
10718;BME280;13513;42.700;23.124;2024-02-21T02:09:28;150111.09;;;4.72;100.00
10718;BME280;13513;42.700;23.124;2024-02-21T02:11:56;150094.37;;;4.66;100.00
10718;BME280;13513;42.700;23.124;2024-02-21T02:14:25;150072.53;;;4.57;100.00
10718;BME280;13513;42.700;23.124;2024-02-21T02:16:53;150086.69;;;4.63;100.00
10718;BME280;13513;42.700;23.124;2024-02-21T02:19:20;150066.05;;;4.55;100.00
10718;BME280;13513;42.700;23.124;2024-02-21T02:21:49;150076.34;;;4.59;100.00
10718;BME280;13513;42.700;23.124;2024-02-21T02:24:20;150050.63;;;4.49;100.00
10718;BME280;13513;42.700;23.124;2024-02-21T02:26:48;150071.22;;;4.57;100.00
10718;BME280;13513;42.700;23.124;2024-02-21T02:29:15;150085.37;;;4.62;100.00
10718;BME280;13513;42.700;23.124;2024-02-21T02:31:43;150107.28;;;4.71;100.00
10718;BME280;13513;42.700;23.124;2024-02-21T02:34:11;150130.44;;;4.80;100.00
10718;BME280;13513;42.700;23.124;2024-02-21T02:36:38;150143.30;;;4.85;100.00
10718;BME280;13513;42.700;23.124;2024-02-21T02:39:06;150138.17;;;4.83;100.00
10718;BME280;13513;42.700;23.124;2024-02-21T02:41:36;150130.44;;;4.80;100.00
10718;BME280;13513;42.700;23.124;2024-02-21T02:44:03;150117.58;;;4.75;100.00
10718;BME280;13513;42.700;23.124;2024-02-21T02:46:31;150118.83;;;4.75;100.00
10718;BME280;13513;42.700;23.124;2024-02-21T02:48:58;150121.44;;;4.76;100.00
10718;BME280;13513;42.700;23.124;2024-02-21T02:51:26;150138.17;;;4.83;100.00
10718;BME280;13513;42.700;23.124;2024-02-21T02:53:53;150099.55;;;4.68;100.00
10718;BME280;13513;42.700;23.124;2024-02-21T02:56:20;150089.25;;;4.64;100.00
10718;BME280;13513;42.700;23.124;2024-02-21T02:58:48;150105.97;;;4.70;100.00
10718;BME280;13513;42.700;23.124;2024-02-21T03:01:15;150094.37;;;4.66;100.00
10718;BME280;13513;42.700;23.124;2024-02-21T03:03:43;150112.41;;;4.73;100.00
10718;BME280;13513;42.700;23.124;2024-02-21T03:06:12;150130.44;;;4.80;100.00
10718;BME280;13513;42.700;23.124;2024-02-21T03:08:39;150138.17;;;4.83;100.00
10718;BME280;13513;42.700;23.124;2024-02-21T03:11:07;150138.17;;;4.83;100.00
10718;BME280;13513;42.700;23.124;2024-02-21T03:13:35;150147.16;;;4.86;100.00
10718;BME280;13513;42.700;23.124;2024-02-21T03:16:02;150131.73;;;4.80;100.00
10718;BME280;13513;42.700;23.124;2024-02-21T03:18:30;150131.73;;;4.80;100.00
10718;BME280;13513;42.700;23.124;2024-02-21T03:20:58;150134.30;;;4.81;100.00
10718;BME280;13513;42.700;23.124;2024-02-21T03:23:25;150134.30;;;4.81;100.00
10718;BME280;13513;42.700;23.124;2024-02-21T03:25:53;150130.44;;;4.80;100.00
10718;BME280;13513;42.700;23.124;2024-02-21T03:28:21;150107.28;;;4.71;100.00
10718;BME280;13513;42.700;23.124;2024-02-21T03:30:48;150094.37;;;4.66;100.00
10718;BME280;13513;42.700;23.124;2024-02-21T03:33:16;150068.66;;;4.56;100.00
10718;BME280;13513;42.700;23.124;2024-02-21T03:35:43;150072.53;;;4.57;100.00
10718;BME280;13513;42.700;23.124;2024-02-21T03:38:10;150080.20;;;4.60;100.00
10718;BME280;13513;42.700;23.124;2024-02-21T03:40:38;150077.64;;;4.59;100.00
10718;BME280;13513;42.700;23.124;2024-02-21T03:43:05;150095.69;;;4.66;100.00
10718;BME280;13513;42.700;23.124;2024-02-21T03:45:33;150111.09;;;4.72;100.00
10718;BME280;13513;42.700;23.124;2024-02-21T03:48:00;150130.44;;;4.80;100.00
10718;BME280;13513;42.700;23.124;2024-02-21T03:50:28;150157.47;;;4.90;100.00
10718;BME280;13513;42.700;23.124;2024-02-21T03:52:56;150160.03;;;4.91;100.00
10718;BME280;13513;42.700;23.124;2024-02-21T03:55:23;150167.77;;;4.94;100.00
10718;BME280;13513;42.700;23.124;2024-02-21T03:57:51;150166.50;;;4.94;100.00
10718;BME280;13513;42.700;23.124;2024-02-21T04:00:18;150197.41;;;5.06;100.00
10718;BME280;13513;42.700;23.124;2024-02-21T04:02:46;150215.44;;;5.13;100.00
10718;BME280;13513;42.700;23.124;2024-02-21T04:05:17;150215.44;;;5.13;100.00
10718;BME280;13513;42.700;23.124;2024-02-21T04:07:45;150210.27;;;5.11;100.00
10718;BME280;13513;42.700;23.124;2024-02-21T04:10:13;150216.69;;;5.13;100.00
10718;BME280;13513;42.700;23.124;2024-02-21T04:12:40;150218.00;;;5.14;100.00
10718;BME280;13513;42.700;23.124;2024-02-21T04:15:08;150216.69;;;5.13;100.00
10718;BME280;13513;42.700;23.124;2024-02-21T04:17:37;150212.83;;;5.12;100.00
10718;BME280;13513;42.700;23.124;2024-02-21T04:20:05;150187.09;;;5.02;100.00
10718;BME280;13513;42.700;23.124;2024-02-21T04:22:35;150180.63;;;4.99;100.00
10718;BME280;13513;42.700;23.124;2024-02-21T04:25:03;150180.63;;;4.99;100.00
10718;BME280;13513;42.700;23.124;2024-02-21T04:27:30;150158.77;;;4.91;100.00
10718;BME280;13513;42.700;23.124;2024-02-21T04:29:58;150166.50;;;4.94;100.00
10718;BME280;13513;42.700;23.124;2024-02-21T04:32:25;150158.77;;;4.91;100.00
10718;BME280;13513;42.700;23.124;2024-02-21T04:34:54;150165.20;;;4.93;100.00
10718;BME280;13513;42.700;23.124;2024-02-21T04:37:21;150156.20;;;4.90;100.00
10718;BME280;13513;42.700;23.124;2024-02-21T04:39:49;150136.88;;;4.82;100.00
10718;BME280;13513;42.700;23.124;2024-02-21T04:42:16;150142.03;;;4.84;100.00
10718;BME280;13513;42.700;23.124;2024-02-21T04:44:44;150118.83;;;4.75;100.00
10718;BME280;13513;42.700;23.124;2024-02-21T04:47:11;150107.28;;;4.71;100.00
10718;BME280;13513;42.700;23.124;2024-02-21T04:49:39;150100.80;;;4.68;100.00
10718;BME280;13513;42.700;23.124;2024-02-21T04:52:06;150093.12;;;4.65;100.00
10718;BME280;13513;42.700;23.124;2024-02-21T04:54:34;150067.34;;;4.55;100.00
10718;BME280;13513;42.700;23.124;2024-02-21T04:57:02;150040.33;;;4.45;100.00
10718;BME280;13513;42.700;23.124;2024-02-21T04:59:29;150021.00;;;4.37;100.00
10718;BME280;13513;42.700;23.124;2024-02-21T05:01:56;150030.03;;;4.41;100.00
10718;BME280;13513;42.700;23.124;2024-02-21T05:04:25;150003.03;;;4.30;100.00
10718;BME280;13513;42.700;23.124;2024-02-21T05:06:52;150003.03;;;4.30;100.00
10718;BME280;13513;42.700;23.124;2024-02-21T05:09:21;150003.03;;;4.30;100.00
10718;BME280;13513;42.700;23.124;2024-02-21T05:11:48;150014.58;;;4.34;100.00
10718;BME280;13513;42.700;23.124;2024-02-21T05:14:16;149979.83;;;4.21;100.00
10718;BME280;13513;42.700;23.124;2024-02-21T05:16:43;149961.81;;;4.14;100.00
10718;BME280;13513;42.700;23.124;2024-02-21T05:19:10;149966.97;;;4.16;100.00
10718;BME280;13513;42.700;23.124;2024-02-21T05:21:38;149970.84;;;4.17;100.00
10718;BME280;13513;42.700;23.124;2024-02-21T05:24:06;149955.37;;;4.11;100.00
10718;BME280;13513;42.700;23.124;2024-02-21T05:26:33;149951.52;;;4.10;100.00
10718;BME280;13513;42.700;23.124;2024-02-21T05:29:01;149974.70;;;4.19;100.00
10718;BME280;13513;42.700;23.124;2024-02-21T05:34:15;149985.00;;;4.23;100.00
10718;BME280;13513;42.700;23.124;2024-02-21T05:36:43;150000.41;;;4.29;100.00
10718;BME280;13513;42.700;23.124;2024-02-21T05:39:10;150030.03;;;4.41;100.00
10718;BME280;13513;42.700;23.124;2024-02-21T05:41:38;150051.94;;;4.49;100.00
10718;BME280;13513;42.700;23.124;2024-02-21T05:44:05;150060.92;;;4.53;100.00
10718;BME280;13513;42.700;23.124;2024-02-21T05:46:33;150085.37;;;4.62;100.00
10718;BME280;13513;42.700;23.124;2024-02-21T05:49:00;150111.09;;;4.72;100.00
10718;BME280;13513;42.700;23.124;2024-02-21T05:51:27;150125.27;;;4.78;100.00
10718;BME280;13513;42.700;23.124;2024-02-21T05:53:56;150162.64;;;4.92;100.00
10718;BME280;13513;42.700;23.124;2024-02-21T05:56:24;150203.83;;;5.08;100.00
10718;BME280;13513;42.700;23.124;2024-02-21T05:58:51;150199.97;;;5.07;100.00
10718;BME280;13513;42.700;23.124;2024-02-21T06:01:19;150212.83;;;5.12;100.00
10718;BME280;13513;42.700;23.124;2024-02-21T06:03:48;150263.08;;;5.31;100.00
10718;BME280;13513;42.700;23.124;2024-02-21T06:06:15;150274.64;;;5.36;100.00
10718;BME280;13513;42.700;23.124;2024-02-21T06:08:43;150286.25;;;5.40;100.00
10718;BME280;13513;42.700;23.124;2024-02-21T06:11:10;150279.81;;;5.38;100.00
10718;BME280;13513;42.700;23.124;2024-02-21T06:13:39;150293.98;;;5.43;100.00
10718;BME280;13513;42.700;23.124;2024-02-21T06:16:07;150317.16;;;5.52;100.00
10718;BME280;13513;42.700;23.124;2024-02-21T06:18:36;150328.78;;;5.57;100.00
10718;BME280;13513;42.700;23.124;2024-02-21T06:21:06;150332.64;;;5.58;100.00
10718;BME280;13513;42.700;23.124;2024-02-21T06:23:33;150367.44;;;5.72;100.00
10718;BME280;13513;42.700;23.124;2024-02-21T06:26:01;150413.89;;;5.90;100.00
10718;BME280;13513;42.700;23.124;2024-02-21T06:28:28;150447.37;;;6.03;100.00
10718;BME280;13513;42.700;23.124;2024-02-21T06:30:56;150468.00;;;6.11;100.00
10718;BME280;13513;42.700;23.124;2024-02-21T06:33:23;150496.38;;;6.22;100.00
10718;BME280;13513;42.700;23.124;2024-02-21T06:35:51;150507.94;;;6.26;100.00
10718;BME280;13513;42.700;23.124;2024-02-21T06:38:20;150514.42;;;6.29;100.00
10718;BME280;13513;42.700;23.124;2024-02-21T06:40:48;150533.75;;;6.36;100.00
10718;BME280;13513;42.700;23.124;2024-02-21T06:43:19;150562.13;;;6.47;100.00
10718;BME280;13513;42.700;23.124;2024-02-21T06:45:47;150594.36;;;6.60;100.00
10718;BME280;13513;42.700;23.124;2024-02-21T06:48:16;150608.56;;;6.65;100.00
10718;BME280;13513;42.700;23.124;2024-02-21T06:50:45;150586.63;;;6.57;100.00
10718;BME280;13513;42.700;23.124;2024-02-21T06:53:13;150612.44;;;6.67;100.00
10718;BME280;13513;42.700;23.124;2024-02-21T06:55:40;150640.77;;;6.78;100.00
10718;BME280;13513;42.700;23.124;2024-02-21T06:58:07;150629.19;;;6.73;100.00
10718;BME280;13513;42.700;23.124;2024-02-21T07:00:37;150648.52;;;6.81;100.00
10718;BME280;13513;42.700;23.124;2024-02-21T07:03:05;150640.77;;;6.78;100.00
10718;BME280;13513;42.700;23.124;2024-02-21T07:05:32;150654.95;;;6.83;100.00
10718;BME280;13513;42.700;23.124;2024-02-21T07:08:00;150680.78;;;6.93;100.00
10718;BME280;13513;42.700;23.124;2024-02-21T07:10:27;150709.16;;;7.04;100.00
10718;BME280;13513;42.700;23.124;2024-02-21T07:12:56;150718.17;;;7.08;100.00
10718;BME280;13513;42.700;23.124;2024-02-21T07:15:23;150731.06;;;7.13;100.00
10718;BME280;13513;42.700;23.124;2024-02-21T07:17:52;150725.92;;;7.11;100.00
10718;BME280;13513;42.700;23.124;2024-02-21T07:20:20;150733.67;;;7.14;100.00
10718;BME280;13513;42.700;23.124;2024-02-21T07:22:47;150762.06;;;7.25;100.00
10718;BME280;13513;42.700;23.124;2024-02-21T07:25:15;150777.53;;;7.31;100.00
10718;BME280;13513;42.700;23.124;2024-02-21T07:27:44;150772.39;;;7.29;100.00
10718;BME280;13513;42.700;23.124;2024-02-21T07:30:12;150768.52;;;7.27;100.00
10718;BME280;13513;42.700;23.124;2024-02-21T07:32:40;150768.52;;;7.27;100.00
10718;BME280;13513;42.700;23.124;2024-02-21T07:35:08;150811.11;;;7.44;100.00
10718;BME280;13513;42.700;23.124;2024-02-21T07:37:39;150808.48;;;7.43;100.00
10718;BME280;13513;42.700;23.124;2024-02-21T07:40:12;150799.47;;;7.39;100.00
10718;BME280;13513;42.700;23.124;2024-02-21T07:42:36;150795.59;;;7.38;100.00
10718;BME280;13513;42.700;23.124;2024-02-21T07:45:04;150794.28;;;7.37;100.00
10718;BME280;13513;42.700;23.124;2024-02-21T07:47:31;150824.00;;;7.49;100.00
10718;BME280;13513;42.700;23.124;2024-02-21T07:49:59;150863.98;;;7.64;100.00
10718;BME280;13513;42.700;23.124;2024-02-21T07:52:26;150911.78;;;7.83;100.00
10718;BME280;13513;42.700;23.124;2024-02-21T07:54:53;150935.00;;;7.92;100.00
10718;BME280;13513;42.700;23.124;2024-02-21T07:57:21;150986.66;;;8.12;100.00
10718;BME280;13513;42.700;23.124;2024-02-21T07:59:49;151021.56;;;8.25;100.00
10718;BME280;13513;42.700;23.124;2024-02-21T08:02:16;151004.73;;;8.19;100.00
10718;BME280;13513;42.700;23.124;2024-02-21T08:04:44;151066.77;;;8.43;100.00
10718;BME280;13513;42.700;23.124;2024-02-21T08:07:11;151061.63;;;8.41;97.18
10718;BME280;13513;42.700;23.124;2024-02-21T08:09:40;151069.34;;;8.44;94.62
10718;BME280;13513;42.700;23.124;2024-02-21T08:12:08;151140.41;;;8.72;97.00
10718;BME280;13513;42.700;23.124;2024-02-21T08:14:35;151238.63;;;9.10;93.19
10718;BME280;13513;42.700;23.124;2024-02-21T08:17:03;151330.42;;;9.45;92.46
10718;BME280;13513;42.700;23.124;2024-02-21T08:19:30;151342.03;;;9.50;81.86
10718;BME280;13513;42.700;23.124;2024-02-21T08:21:58;151322.66;;;9.42;81.24
10718;BME280;13513;42.700;23.124;2024-02-21T08:24:26;151281.30;;;9.26;86.86
10718;BME280;13513;42.700;23.124;2024-02-21T08:26:53;151360.14;;;9.57;84.96
10718;BME280;13513;42.700;23.124;2024-02-21T08:29:20;151339.45;;;9.49;82.33
10718;BME280;13513;42.700;23.124;2024-02-21T08:31:48;151292.89;;;9.31;81.03
10718;BME280;13513;42.700;23.124;2024-02-21T08:34:16;151361.45;;;9.57;81.27
10718;BME280;13513;42.700;23.124;2024-02-21T08:36:44;151473.97;;;10.01;80.59
10718;BME280;13513;42.700;23.124;2024-02-21T08:39:11;151519.30;;;10.18;78.32
10718;BME280;13513;42.700;23.124;2024-02-21T08:41:40;151615.02;;;10.55;79.03
10718;BME280;13513;42.700;23.124;2024-02-21T08:44:08;151732.84;;;11.01;72.93
10718;BME280;13513;42.700;23.124;2024-02-21T08:46:35;151767.80;;;11.14;70.91
10718;BME280;13513;42.700;23.124;2024-02-21T08:49:05;151876.59;;;11.56;69.47
10718;BME280;13513;42.700;23.124;2024-02-21T08:51:32;151877.86;;;11.57;69.62
10718;BME280;13513;42.700;23.124;2024-02-21T08:54:00;151801.45;;;11.27;68.71
10718;BME280;13513;42.700;23.124;2024-02-21T08:56:30;151822.17;;;11.35;67.75
10718;BME280;13513;42.700;23.124;2024-02-21T08:58:57;152020.41;;;12.12;64.45
10718;BME280;13513;42.700;23.124;2024-02-21T09:01:27;152155.23;;;12.64;63.49
10718;BME280;13513;42.700;23.124;2024-02-21T09:03:55;152273.27;;;13.10;57.37
10718;BME280;13513;42.700;23.124;2024-02-21T09:06:23;152208.41;;;12.85;59.35
10718;BME280;13513;42.700;23.124;2024-02-21T09:08:50;152295.34;;;13.18;59.69
10718;BME280;13513;42.700;23.124;2024-02-21T09:11:18;152378.34;;;13.50;56.39
10718;BME280;13513;42.700;23.124;2024-02-21T09:13:46;152367.97;;;13.46;55.08
10718;BME280;13513;42.700;23.124;2024-02-21T09:16:13;152304.39;;;13.22;55.45
10718;BME280;13513;42.700;23.124;2024-02-21T09:18:41;152166.92;;;12.69;54.84
10718;BME280;13513;42.700;23.124;2024-02-21T09:21:08;152094.28;;;12.41;57.94
10718;BME280;13513;42.700;23.124;2024-02-21T09:23:36;152039.87;;;12.19;57.45
10718;BME280;13513;42.700;23.124;2024-02-21T09:26:03;151897.36;;;11.64;64.12
10718;BME280;13513;42.700;23.124;2024-02-21T09:28:31;151896.05;;;11.64;61.75
10718;BME280;13513;42.700;23.124;2024-02-21T09:31:00;151936.23;;;11.79;65.88
10718;BME280;13513;42.700;23.124;2024-02-21T09:33:28;152016.56;;;12.10;58.64
10718;BME280;13513;42.700;23.124;2024-02-21T09:35:55;152016.56;;;12.10;56.50
10718;BME280;13513;42.700;23.124;2024-02-21T09:38:23;152010.05;;;12.08;58.13
10718;BME280;13513;42.700;23.124;2024-02-21T09:43:35;152116.34;;;12.49;55.89
10718;BME280;13513;42.700;23.124;2024-02-21T09:46:04;152177.28;;;12.73;54.18
10718;BME280;13513;42.700;23.124;2024-02-21T09:51:03;152220.03;;;12.89;51.97
10718;BME280;13513;42.700;23.124;2024-02-21T09:53:31;152161.72;;;12.67;53.24
10718;BME280;13513;42.700;23.124;2024-02-21T09:55:59;152144.86;;;12.60;54.63
10718;BME280;13513;42.700;23.124;2024-02-21T09:58:27;152117.66;;;12.50;57.59
10718;BME280;13513;42.700;23.124;2024-02-21T10:00:55;152192.83;;;12.79;54.91
10718;BME280;13513;42.700;23.124;2024-02-21T10:03:24;152210.98;;;12.86;54.62
10718;BME280;13513;42.700;23.124;2024-02-21T10:05:51;152303.12;;;13.21;53.17
10718;BME280;13513;42.700;23.124;2024-02-21T10:08:20;152296.66;;;13.19;51.05
10718;BME280;13513;42.700;23.124;2024-02-21T10:10:48;152159.13;;;12.66;51.42
10718;BME280;13513;42.700;23.124;2024-02-21T10:13:29;152015.25;;;12.10;52.80
10718;BME280;13513;42.700;23.124;2024-02-21T10:16:04;151998.41;;;12.03;54.61
10718;BME280;13513;42.700;23.124;2024-02-21T10:18:37;152072.28;;;12.32;56.95
10718;BME280;13513;42.700;23.124;2024-02-21T10:21:07;152122.81;;;12.52;53.48
10718;BME280;13513;42.700;23.124;2024-02-21T10:23:46;152045.03;;;12.21;53.08
10718;BME280;13513;42.700;23.124;2024-02-21T10:26:15;152076.19;;;12.34;53.67
10718;BME280;13513;42.700;23.124;2024-02-21T10:28:43;151899.94;;;11.65;56.18
10718;BME280;13513;42.700;23.124;2024-02-21T10:31:26;151954.33;;;11.86;54.18
10718;BME280;13513;42.700;23.124;2024-02-21T10:33:59;151964.69;;;11.90;53.76
10718;BME280;13513;42.700;23.124;2024-02-21T10:36:31;152050.23;;;12.23;53.96
10718;BME280;13513;42.700;23.124;2024-02-21T10:38:59;152134.50;;;12.56;54.12
10718;BME280;13513;42.700;23.124;2024-02-21T10:41:26;152166.92;;;12.69;52.91
10718;BME280;13513;42.700;23.124;2024-02-21T10:43:55;152209.67;;;12.85;52.89
10718;BME280;13513;42.700;23.124;2024-02-21T10:46:24;152279.75;;;13.12;50.05
10718;BME280;13513;42.700;23.124;2024-02-21T10:49:01;152362.81;;;13.44;48.82
10718;BME280;13513;42.700;23.124;2024-02-21T10:51:27;152538.00;;;14.12;46.46
10718;BME280;13513;42.700;23.124;2024-02-21T10:56:45;152610.73;;;14.40;44.34
10718;BME280;13513;42.700;23.124;2024-02-21T10:59:13;152488.67;;;13.93;44.40
10718;BME280;13513;42.700;23.124;2024-02-21T11:01:41;152371.88;;;13.48;46.33
10718;BME280;13513;42.700;23.124;2024-02-21T11:04:10;152287.55;;;13.15;46.83
10718;BME280;13513;42.700;23.124;2024-02-21T11:06:41;152240.84;;;12.97;48.75
10718;BME280;13513;42.700;23.124;2024-02-21T11:09:10;152192.83;;;12.79;48.86
10718;BME280;13513;42.700;23.124;2024-02-21T11:11:39;152054.14;;;12.25;49.73
10718;BME280;13513;42.700;23.124;2024-02-21T11:14:17;152060.61;;;12.28;50.18
10718;BME280;13513;42.700;23.124;2024-02-21T11:16:41;152007.47;;;12.07;50.90
10718;BME280;13513;42.700;23.124;2024-02-21T11:19:18;151982.84;;;11.97;50.92
10718;BME280;13513;42.700;23.124;2024-02-21T11:21:39;151989.31;;;12.00;49.60
10718;BME280;13513;42.700;23.124;2024-02-21T11:24:08;151890.84;;;11.62;51.57
10718;BME280;13513;42.700;23.124;2024-02-21T11:26:37;151887.00;;;11.60;51.77
10718;BME280;13513;42.700;23.124;2024-02-21T11:29:05;151859.72;;;11.50;51.97
10718;BME280;13513;42.700;23.124;2024-02-21T11:31:40;151835.11;;;11.40;52.18
10718;BME280;13513;42.700;23.124;2024-02-21T11:34:17;151850.67;;;11.46;52.70
10718;BME280;13513;42.700;23.124;2024-02-21T11:36:52;151818.28;;;11.34;53.23
10718;BME280;13513;42.700;23.124;2024-02-21T11:39:25;151858.45;;;11.49;53.19
10718;BME280;13513;42.700;23.124;2024-02-21T11:42:06;151784.62;;;11.21;54.99
10718;BME280;13513;42.700;23.124;2024-02-21T11:44:39;151769.06;;;11.15;55.87
10718;BME280;13513;42.700;23.124;2024-02-21T11:47:09;151726.33;;;10.98;58.41
10718;BME280;13513;42.700;23.124;2024-02-21T11:49:43;151701.73;;;10.89;62.39
10718;BME280;13513;42.700;23.124;2024-02-21T11:52:08;151674.56;;;10.78;60.14
10718;BME280;13513;42.700;23.124;2024-02-21T11:54:36;151682.34;;;10.81;61.79
10718;BME280;13513;42.700;23.124;2024-02-21T11:57:04;151688.80;;;10.84;62.91
10718;BME280;13513;42.700;23.124;2024-02-21T11:59:31;151671.98;;;10.77;61.43
10718;BME280;13513;42.700;23.124;2024-02-21T12:02:00;151640.92;;;10.65;60.25
10718;BME280;13513;42.700;23.124;2024-02-21T12:04:30;151625.38;;;10.59;63.75
10718;BME280;13513;42.700;23.124;2024-02-21T12:06:58;151644.81;;;10.67;61.24
10718;BME280;13513;42.700;23.124;2024-02-21T12:09:26;151655.17;;;10.71;61.36
10718;BME280;13513;42.700;23.124;2024-02-21T12:11:58;151699.16;;;10.88;60.03
10718;BME280;13513;42.700;23.124;2024-02-21T12:14:27;151723.75;;;10.97;59.92
10718;BME280;13513;42.700;23.124;2024-02-21T12:16:55;151735.42;;;11.02;61.86
10718;BME280;13513;42.700;23.124;2024-02-21T12:19:22;151761.28;;;11.12;59.63
10718;BME280;13513;42.700;23.124;2024-02-21T12:21:50;151754.83;;;11.09;58.77
10718;BME280;13513;42.700;23.124;2024-02-21T12:24:25;151662.94;;;10.74;58.39
10718;BME280;13513;42.700;23.124;2024-02-21T12:26:54;151621.48;;;10.58;59.21
10718;BME280;13513;42.700;23.124;2024-02-21T12:29:23;151649.97;;;10.69;61.21
10718;BME280;13513;42.700;23.124;2024-02-21T12:31:55;151714.72;;;10.94;62.60
10718;BME280;13513;42.700;23.124;2024-02-21T12:34:23;151770.38;;;11.15;60.77
10718;BME280;13513;42.700;23.124;2024-02-21T12:36:53;151841.62;;;11.43;56.87
10718;BME280;13513;42.700;23.124;2024-02-21T12:39:20;151894.73;;;11.63;54.39
10718;BME280;13513;42.700;23.124;2024-02-21T12:41:47;151921.97;;;11.74;53.94
10718;BME280;13513;42.700;23.124;2024-02-21T12:44:15;151994.53;;;12.02;53.25
10718;BME280;13513;42.700;23.124;2024-02-21T12:46:44;151989.31;;;12.00;52.02
10718;BME280;13513;42.700;23.124;2024-02-21T12:49:11;151990.63;;;12.00;52.44
10718;BME280;13513;42.700;23.124;2024-02-21T12:51:39;152019.14;;;12.11;52.40
10718;BME280;13513;42.700;23.124;2024-02-21T12:54:08;152019.14;;;12.11;50.87
10718;BME280;13513;42.700;23.124;2024-02-21T12:56:37;151998.41;;;12.03;52.79